createdAt,value
2018-03-17T00:02:48.032Z,94115
2018-03-17T00:08:16.205Z,94094
2018-03-17T00:13:44.341Z,94093
2018-03-17T00:19:15.171Z,94094
2018-03-17T00:24:43.310Z,94096
2018-03-17T00:30:11.442Z,94094
2018-03-17T00:35:40.592Z,94089
2018-03-17T00:41:09.495Z,94079
2018-03-17T00:46:37.644Z,94078
2018-03-17T00:52:07.536Z,94089
2018-03-17T00:57:35.686Z,94079
2018-03-17T01:03:03.823Z,94072
2018-03-17T01:08:31.971Z,94050
2018-03-17T01:14:00.129Z,94033
2018-03-17T01:19:28.558Z,94028
2018-03-17T01:24:56.690Z,94031
2018-03-17T01:30:25.900Z,94040
2018-03-17T01:35:54.068Z,94026
2018-03-17T01:41:22.272Z,94007
2018-03-17T01:46:50.398Z,94017
2018-03-17T01:52:31.990Z,93999
2018-03-17T01:58:01.110Z,93999
2018-03-17T02:03:30.031Z,93984
2018-03-17T02:08:58.318Z,93974
2018-03-17T02:14:26.515Z,93971
2018-03-17T02:19:54.688Z,93959
2018-03-17T02:25:22.881Z,93958
2018-03-17T02:30:51.018Z,93952
2018-03-17T02:36:19.170Z,93952
2018-03-17T02:41:47.296Z,93951
2018-03-17T02:47:15.420Z,93948
2018-03-17T02:52:44.330Z,93948
2018-03-17T02:58:12.504Z,93945
2018-03-17T03:03:40.662Z,93941
2018-03-17T03:09:12.818Z,93928
2018-03-17T03:14:41.705Z,93927
2018-03-17T03:20:10.781Z,93932
2018-03-17T03:25:38.987Z,93927
2018-03-17T03:31:07.120Z,93912
2018-03-17T03:36:36.010Z,93903
2018-03-17T03:42:06.142Z,93893
2018-03-17T03:47:35.059Z,93889
2018-03-17T03:53:03.208Z,93882
2018-03-17T03:58:31.348Z,93881
2018-03-17T04:03:59.498Z,93872
2018-03-17T04:09:31.833Z,93871
2018-03-17T04:14:59.988Z,93866
2018-03-17T04:20:29.143Z,93866
2018-03-17T04:25:57.359Z,93856
2018-03-17T04:31:25.572Z,93865
2018-03-17T04:36:54.500Z,93867
2018-03-17T04:42:22.686Z,93860
2018-03-17T04:47:51.534Z,93856
2018-03-17T04:53:31.502Z,93854
2018-03-17T04:58:59.639Z,93840
2018-03-17T05:04:27.794Z,93840
2018-03-17T05:09:55.957Z,93833
2018-03-17T05:15:24.083Z,93827
2018-03-17T05:20:52.218Z,93822
2018-03-17T05:26:20.351Z,93824
2018-03-17T05:31:49.254Z,93817
2018-03-17T05:37:18.399Z,93819
2018-03-17T05:42:47.352Z,93814
2018-03-17T05:48:15.486Z,93808
2018-03-17T05:53:45.547Z,93815
2018-03-17T05:59:13.678Z,93803
2018-03-17T06:04:41.835Z,93795
2018-03-17T06:10:11.040Z,93797
2018-03-17T06:15:40.665Z,93794
2018-03-17T06:21:08.827Z,93781
2018-03-17T06:26:38.861Z,93785
2018-03-17T06:32:08.958Z,93776
2018-03-17T06:37:37.115Z,93774
2018-03-17T06:43:11.908Z,93777
2018-03-17T06:48:40.081Z,93749
2018-03-17T06:54:08.325Z,93755
2018-03-17T06:59:36.473Z,93750
2018-03-17T07:05:04.617Z,93741
2018-03-17T07:10:33.552Z,93744
2018-03-17T07:16:01.707Z,93745
2018-03-17T07:21:29.864Z,93739
2018-03-17T07:26:58.036Z,93744
2018-03-17T07:32:26.991Z,93737
2018-03-17T07:37:56.291Z,93731
2018-03-17T07:43:24.471Z,93739
2018-03-17T07:48:52.696Z,93741
2018-03-17T07:54:22.169Z,93738
2018-03-17T07:59:50.334Z,93736
2018-03-17T08:05:18.478Z,93733
2018-03-17T08:10:47.575Z,93736
2018-03-17T08:16:16.522Z,93731
2018-03-17T08:21:45.439Z,93724
2018-03-17T08:27:13.592Z,93716
2018-03-17T08:32:43.756Z,93713
2018-03-17T08:38:11.910Z,93713
2018-03-17T08:43:40.436Z,93707
2018-03-17T08:49:08.600Z,93698
2018-03-17T08:54:37.536Z,93704
2018-03-17T09:00:06.691Z,93697
2018-03-17T09:05:35.608Z,93693
2018-03-17T09:11:04.045Z,93697
2018-03-17T09:16:32.187Z,93695
2018-03-17T09:22:02.035Z,93693
2018-03-17T09:27:32.899Z,93686
2018-03-17T09:33:01.090Z,93676
2018-03-17T09:38:29.262Z,93673
2018-03-17T09:43:57.453Z,93669
2018-03-17T09:49:25.727Z,93664
2018-03-17T09:54:53.952Z,93658
2018-03-17T10:00:22.914Z,93664
2018-03-17T10:05:52.115Z,93657
2018-03-17T10:11:20.313Z,93657
2018-03-17T10:16:50.209Z,93664
2018-03-17T10:22:18.482Z,93650
2018-03-17T10:27:47.420Z,93625
2018-03-17T10:33:16.720Z,93625
2018-03-17T10:38:44.862Z,93620
2018-03-17T10:44:13.218Z,93604
2018-03-17T10:49:42.301Z,93601
2018-03-17T10:55:10.517Z,93595
2018-03-17T11:00:44.277Z,93602
2018-03-17T11:06:12.644Z,93593
2018-03-17T11:11:41.610Z,93591
2018-03-17T11:17:12.015Z,93583
2018-03-17T11:22:40.404Z,93587
2018-03-17T11:28:09.370Z,93588
2018-03-17T11:33:38.308Z,93589
2018-03-17T11:39:06.514Z,93592
2018-03-17T11:44:35.421Z,93571
2018-03-17T11:50:03.577Z,93581
2018-03-17T11:55:32.556Z,93564
2018-03-17T12:01:00.734Z,93566
2018-03-17T12:06:29.732Z,93560
2018-03-17T12:11:57.920Z,93550
2018-03-17T12:17:26.373Z,93549
2018-03-17T12:22:54.641Z,93549
2018-03-17T12:28:23.825Z,93537
2018-03-17T12:33:53.178Z,93535
2018-03-17T12:39:21.368Z,93518
2018-03-17T12:44:50.315Z,93536
2018-03-17T12:50:18.491Z,93536
2018-03-17T12:55:46.708Z,93539
2018-03-17T13:01:15.804Z,93540
2018-03-17T13:06:43.942Z,93527
2018-03-17T13:12:13.051Z,93527
2018-03-17T13:17:41.983Z,93528
2018-03-17T13:23:16.256Z,93523
2018-03-17T13:28:45.396Z,93523
2018-03-17T13:34:13.538Z,93524
2018-03-17T13:39:42.451Z,93508
2018-03-17T13:45:11.370Z,93511
2018-03-17T13:50:40.374Z,93517
2018-03-17T13:56:08.757Z,93497
2018-03-17T14:01:37.081Z,93493
2018-03-17T14:07:05.257Z,93506
2018-03-17T14:12:34.333Z,93506
2018-03-17T14:18:03.234Z,93508
2018-03-17T14:23:32.182Z,93503
2018-03-17T14:29:00.381Z,93503
2018-03-17T14:34:28.591Z,93490
2018-03-17T14:39:58.346Z,93493
2018-03-17T14:45:26.563Z,93500
2018-03-17T14:50:55.888Z,93499
2018-03-17T14:56:24.161Z,93496
2018-03-17T15:01:53.366Z,93501
2018-03-17T15:07:21.626Z,93502
2018-03-17T15:12:50.793Z,93497
2018-03-17T15:18:19.793Z,93497
2018-03-17T15:23:48.030Z,93495
2018-03-17T15:29:17.230Z,93497
2018-03-17T15:34:46.110Z,93502
2018-03-17T15:40:16.369Z,93496
2018-03-17T15:45:44.489Z,93502
2018-03-17T15:51:12.695Z,93510
2018-03-17T15:56:40.925Z,93496
2018-03-17T16:02:09.107Z,93507
2018-03-17T16:07:37.277Z,93509
2018-03-17T16:13:05.500Z,93502
2018-03-17T16:18:33.601Z,93508
2018-03-17T16:24:01.792Z,93508
2018-03-17T16:29:30.049Z,93520
2018-03-17T16:35:00.365Z,93530
2018-03-17T16:40:32.316Z,93526
2018-03-17T16:46:00.719Z,93522
2018-03-17T16:51:29.056Z,93527
2018-03-17T16:56:57.970Z,93525
2018-03-17T17:02:28.345Z,93528
2018-03-17T17:07:56.564Z,93537
2018-03-17T17:13:25.528Z,93549
2018-03-17T17:18:53.769Z,93546
2018-03-17T17:24:22.935Z,93554
2018-03-17T17:29:55.027Z,93552
2018-03-17T17:35:23.245Z,93560
2018-03-17T17:40:51.975Z,93571
2018-03-17T17:46:24.814Z,93574
2018-03-17T17:51:53.149Z,93567
2018-03-17T17:57:23.306Z,93577
2018-03-17T18:02:54.785Z,93582
2018-03-17T18:08:23.042Z,93585
2018-03-17T18:13:52.527Z,93582
2018-03-17T18:19:25.912Z,93577
2018-03-17T18:24:56.054Z,93582
2018-03-17T18:30:27.194Z,93589
2018-03-17T18:36:03.175Z,93596
2018-03-17T18:41:31.757Z,93604
2018-03-17T18:47:00.709Z,93608
2018-03-17T18:52:29.884Z,93599
2018-03-17T18:58:03.422Z,93605
2018-03-17T19:03:31.952Z,93614
2018-03-17T19:09:01.090Z,93613
2018-03-17T19:14:29.368Z,93619
2018-03-17T19:19:58.308Z,93625
2018-03-17T19:25:27.329Z,93615
2018-03-17T19:30:55.508Z,93622
2018-03-17T19:36:24.892Z,93621
2018-03-17T19:41:54.990Z,93619
2018-03-17T19:47:23.158Z,93628
2018-03-17T19:52:51.337Z,93627
2018-03-17T19:58:21.795Z,93618
2018-03-17T20:03:50.120Z,93637
2018-03-17T20:09:19.134Z,93618
2018-03-17T20:15:07.157Z,93621
2018-03-17T20:20:39.443Z,93619
2018-03-17T20:26:07.736Z,93627
2018-03-17T20:31:36.187Z,93629
2018-03-17T20:37:04.327Z,93617
2018-03-17T20:42:34.556Z,93626
2018-03-17T20:48:02.737Z,93630
2018-03-17T20:53:31.814Z,93634
2018-03-17T20:59:01.180Z,93627
2018-03-17T21:04:30.998Z,93634
2018-03-17T21:09:59.296Z,93634
2018-03-17T21:15:29.181Z,93640
2018-03-17T21:20:57.368Z,93633
2018-03-17T21:26:27.557Z,93636
2018-03-17T21:31:55.825Z,93636
2018-03-17T21:37:24.950Z,93634
2018-03-17T21:42:55.096Z,93628
2018-03-17T21:48:24.605Z,93632
2018-03-17T21:53:52.878Z,93626
2018-03-17T21:59:21.270Z,93631
2018-03-17T22:04:50.179Z,93620
2018-03-17T22:10:18.349Z,93629
2018-03-17T22:15:46.511Z,93614
2018-03-17T22:21:15.644Z,93628
2018-03-17T22:26:44.752Z,93636
2018-03-17T22:32:13.156Z,93652
2018-03-17T22:37:41.537Z,93642
2018-03-17T22:43:09.960Z,93656
2018-03-17T22:48:40.162Z,93649
2018-03-17T22:54:09.177Z,93642
2018-03-17T22:59:38.325Z,93642
2018-03-17T23:05:06.482Z,93639
2018-03-17T23:10:35.522Z,93635
2018-03-17T23:16:09.986Z,93640
2018-03-17T23:21:43.154Z,93642
2018-03-17T23:27:11.368Z,93642
2018-03-17T23:32:39.520Z,93632
2018-03-17T23:38:07.696Z,93645
2018-03-17T23:43:38.111Z,93652
2018-03-17T23:49:06.439Z,93648
2018-03-17T23:54:34.733Z,93665
